sensor_id;sensor_type;location;lat;lon;timestamp;P1;durP1;ratioP1;P2;durP2;ratioP2
15938;SDS011;8068;51.322;9.450;2023-02-28T00:00:08;1.40;;;1.30;;
15938;SDS011;8068;51.322;9.450;2023-02-28T00:02:39;1.77;;;1.00;;
15938;SDS011;8068;51.322;9.450;2023-02-28T00:05:07;2.53;;;1.20;;
15938;SDS011;8068;51.322;9.450;2023-02-28T00:07:34;1.20;;;1.10;;
15938;SDS011;8068;51.322;9.450;2023-02-28T00:10:01;1.53;;;1.40;;
15938;SDS011;8068;51.322;9.450;2023-02-28T00:12:27;1.20;;;1.10;;
15938;SDS011;8068;51.322;9.450;2023-02-28T00:14:53;1.30;;;1.20;;
15938;SDS011;8068;51.322;9.450;2023-02-28T00:17:19;1.37;;;1.27;;
15938;SDS011;8068;51.322;9.450;2023-02-28T00:19:49;1.10;;;1.00;;
15938;SDS011;8068;51.322;9.450;2023-02-28T00:22:17;1.90;;;1.40;;
15938;SDS011;8068;51.322;9.450;2023-02-28T00:24:45;2.43;;;0.87;;
15938;SDS011;8068;51.322;9.450;2023-02-28T00:27:11;1.10;;;1.00;;
15938;SDS011;8068;51.322;9.450;2023-02-28T00:29:37;1.07;;;0.97;;
15938;SDS011;8068;51.322;9.450;2023-02-28T00:32:04;1.23;;;1.13;;
15938;SDS011;8068;51.322;9.450;2023-02-28T00:34:30;2.90;;;1.27;;
15938;SDS011;8068;51.322;9.450;2023-02-28T00:36:57;1.20;;;1.10;;
15938;SDS011;8068;51.322;9.450;2023-02-28T00:39:23;2.77;;;1.40;;
15938;SDS011;8068;51.322;9.450;2023-02-28T00:41:49;1.37;;;1.20;;
15938;SDS011;8068;51.322;9.450;2023-02-28T00:44:15;1.43;;;1.33;;
15938;SDS011;8068;51.322;9.450;2023-02-28T00:46:41;1.20;;;1.03;;
15938;SDS011;8068;51.322;9.450;2023-02-28T00:49:07;1.20;;;1.10;;
15938;SDS011;8068;51.322;9.450;2023-02-28T00:51:34;1.40;;;1.30;;
15938;SDS011;8068;51.322;9.450;2023-02-28T00:54:00;1.10;;;1.00;;
15938;SDS011;8068;51.322;9.450;2023-02-28T00:56:26;2.60;;;1.80;;
15938;SDS011;8068;51.322;9.450;2023-02-28T00:58:52;1.10;;;0.93;;
15938;SDS011;8068;51.322;9.450;2023-02-28T01:01:18;1.33;;;1.23;;
15938;SDS011;8068;51.322;9.450;2023-02-28T01:03:44;2.97;;;1.20;;
15938;SDS011;8068;51.322;9.450;2023-02-28T01:06:11;1.10;;;1.00;;
15938;SDS011;8068;51.322;9.450;2023-02-28T01:08:37;1.10;;;1.00;;
15938;SDS011;8068;51.322;9.450;2023-02-28T01:11:12;1.83;;;1.20;;
15938;SDS011;8068;51.322;9.450;2023-02-28T01:13:41;1.20;;;1.10;;
15938;SDS011;8068;51.322;9.450;2023-02-28T01:16:08;1.00;;;0.90;;
15938;SDS011;8068;51.322;9.450;2023-02-28T01:18:35;1.07;;;0.97;;
15938;SDS011;8068;51.322;9.450;2023-02-28T01:21:05;1.00;;;0.80;;
15938;SDS011;8068;51.322;9.450;2023-02-28T01:23:32;1.37;;;0.73;;
15938;SDS011;8068;51.322;9.450;2023-02-28T01:26:08;1.10;;;1.00;;
15938;SDS011;8068;51.322;9.450;2023-02-28T01:28:45;1.00;;;0.90;;
15938;SDS011;8068;51.322;9.450;2023-02-28T01:31:12;1.50;;;0.90;;
15938;SDS011;8068;51.322;9.450;2023-02-28T01:33:38;0.90;;;0.80;;
15938;SDS011;8068;51.322;9.450;2023-02-28T01:36:05;1.20;;;1.10;;
15938;SDS011;8068;51.322;9.450;2023-02-28T01:38:33;2.03;;;1.20;;
15938;SDS011;8068;51.322;9.450;2023-02-28T01:41:00;1.00;;;0.87;;
15938;SDS011;8068;51.322;9.450;2023-02-28T01:43:27;1.03;;;0.93;;
15938;SDS011;8068;51.322;9.450;2023-02-28T01:45:56;2.93;;;0.83;;
15938;SDS011;8068;51.322;9.450;2023-02-28T01:48:26;1.03;;;0.93;;
15938;SDS011;8068;51.322;9.450;2023-02-28T01:50:56;1.30;;;0.70;;
15938;SDS011;8068;51.322;9.450;2023-02-28T01:53:24;1.40;;;0.90;;
15938;SDS011;8068;51.322;9.450;2023-02-28T01:55:56;0.90;;;0.77;;
15938;SDS011;8068;51.322;9.450;2023-02-28T01:58:22;1.43;;;0.60;;
15938;SDS011;8068;51.322;9.450;2023-02-28T02:00:48;2.03;;;1.00;;
15938;SDS011;8068;51.322;9.450;2023-02-28T02:06:06;0.90;;;0.80;;
15938;SDS011;8068;51.322;9.450;2023-02-28T02:08:32;0.80;;;0.80;;
15938;SDS011;8068;51.322;9.450;2023-02-28T02:10:59;1.00;;;0.80;;
15938;SDS011;8068;51.322;9.450;2023-02-28T02:25:11;0.87;;;0.77;;
15938;SDS011;8068;51.322;9.450;2023-02-28T02:27:58;1.00;;;0.90;;
15938;SDS011;8068;51.322;9.450;2023-02-28T02:36:00;1.00;;;0.90;;
15938;SDS011;8068;51.322;9.450;2023-02-28T02:38:32;0.87;;;0.70;;
15938;SDS011;8068;51.322;9.450;2023-02-28T02:43:39;1.00;;;0.90;;
15938;SDS011;8068;51.322;9.450;2023-02-28T02:46:21;0.90;;;0.80;;
15938;SDS011;8068;51.322;9.450;2023-02-28T02:48:51;1.90;;;0.80;;
15938;SDS011;8068;51.322;9.450;2023-02-28T02:51:20;1.00;;;0.80;;
15938;SDS011;8068;51.322;9.450;2023-02-28T02:54:02;1.13;;;1.03;;
15938;SDS011;8068;51.322;9.450;2023-02-28T02:56:32;0.80;;;0.50;;
15938;SDS011;8068;51.322;9.450;2023-02-28T02:59:00;1.20;;;1.10;;
15938;SDS011;8068;51.322;9.450;2023-02-28T03:01:30;1.10;;;0.60;;
15938;SDS011;8068;51.322;9.450;2023-02-28T03:03:58;1.10;;;1.00;;
15938;SDS011;8068;51.322;9.450;2023-02-28T03:06:26;0.80;;;0.70;;
15938;SDS011;8068;51.322;9.450;2023-02-28T03:08:52;0.90;;;0.80;;
15938;SDS011;8068;51.322;9.450;2023-02-28T03:11:19;0.87;;;0.70;;
15938;SDS011;8068;51.322;9.450;2023-02-28T03:24:40;1.00;;;0.90;;
15938;SDS011;8068;51.322;9.450;2023-02-28T03:27:17;0.80;;;0.63;;
15938;SDS011;8068;51.322;9.450;2023-02-28T03:29:48;3.27;;;0.90;;
15938;SDS011;8068;51.322;9.450;2023-02-28T03:32:19;1.37;;;0.80;;
15938;SDS011;8068;51.322;9.450;2023-02-28T03:34:57;1.20;;;0.93;;
15938;SDS011;8068;51.322;9.450;2023-02-28T03:37:26;1.40;;;1.30;;
15938;SDS011;8068;51.322;9.450;2023-02-28T03:39:59;0.90;;;0.80;;
15938;SDS011;8068;51.322;9.450;2023-02-28T03:42:31;1.10;;;1.00;;
15938;SDS011;8068;51.322;9.450;2023-02-28T03:45:00;1.00;;;0.90;;
15938;SDS011;8068;51.322;9.450;2023-02-28T03:50:27;1.30;;;0.80;;
15938;SDS011;8068;51.322;9.450;2023-02-28T03:55:58;1.00;;;0.80;;
15938;SDS011;8068;51.322;9.450;2023-02-28T03:58:30;1.10;;;0.80;;
15938;SDS011;8068;51.322;9.450;2023-02-28T04:01:03;1.10;;;0.90;;
15938;SDS011;8068;51.322;9.450;2023-02-28T04:03:34;0.93;;;0.70;;
15938;SDS011;8068;51.322;9.450;2023-02-28T04:06:02;1.10;;;1.00;;
15938;SDS011;8068;51.322;9.450;2023-02-28T04:08:29;0.90;;;0.80;;
15938;SDS011;8068;51.322;9.450;2023-02-28T04:11:00;1.20;;;0.90;;
15938;SDS011;8068;51.322;9.450;2023-02-28T04:13:30;1.37;;;0.97;;
15938;SDS011;8068;51.322;9.450;2023-02-28T04:15:56;1.20;;;1.10;;
15938;SDS011;8068;51.322;9.450;2023-02-28T04:18:22;1.97;;;1.10;;
15938;SDS011;8068;51.322;9.450;2023-02-28T04:20:48;0.90;;;0.70;;
15938;SDS011;8068;51.322;9.450;2023-02-28T04:23:14;0.93;;;0.83;;
15938;SDS011;8068;51.322;9.450;2023-02-28T04:25:40;0.80;;;0.70;;
15938;SDS011;8068;51.322;9.450;2023-02-28T04:28:07;0.90;;;0.80;;
15938;SDS011;8068;51.322;9.450;2023-02-28T04:30:33;0.97;;;0.87;;
15938;SDS011;8068;51.322;9.450;2023-02-28T04:32:59;1.00;;;0.90;;
15938;SDS011;8068;51.322;9.450;2023-02-28T04:35:25;2.03;;;0.73;;
15938;SDS011;8068;51.322;9.450;2023-02-28T04:37:51;3.03;;;0.90;;
15938;SDS011;8068;51.322;9.450;2023-02-28T04:40:17;4.90;;;0.90;;
15938;SDS011;8068;51.322;9.450;2023-02-28T04:42:44;1.00;;;0.90;;
15938;SDS011;8068;51.322;9.450;2023-02-28T04:45:10;1.37;;;0.83;;
15938;SDS011;8068;51.322;9.450;2023-02-28T04:47:36;0.90;;;0.80;;
15938;SDS011;8068;51.322;9.450;2023-02-28T04:50:02;1.07;;;0.97;;
15938;SDS011;8068;51.322;9.450;2023-02-28T04:52:29;1.13;;;1.03;;
15938;SDS011;8068;51.322;9.450;2023-02-28T04:54:55;1.70;;;1.03;;
15938;SDS011;8068;51.322;9.450;2023-02-28T04:57:21;1.10;;;1.00;;
15938;SDS011;8068;51.322;9.450;2023-02-28T04:59:47;1.00;;;0.90;;
15938;SDS011;8068;51.322;9.450;2023-02-28T05:02:13;1.10;;;1.00;;
15938;SDS011;8068;51.322;9.450;2023-02-28T05:04:40;1.07;;;0.97;;
15938;SDS011;8068;51.322;9.450;2023-02-28T05:07:06;4.83;;;1.20;;
15938;SDS011;8068;51.322;9.450;2023-02-28T05:09:32;1.10;;;1.00;;
15938;SDS011;8068;51.322;9.450;2023-02-28T05:12:01;0.90;;;0.80;;
15938;SDS011;8068;51.322;9.450;2023-02-28T05:14:27;1.40;;;1.30;;
15938;SDS011;8068;51.322;9.450;2023-02-28T05:16:53;2.23;;;1.17;;
15938;SDS011;8068;51.322;9.450;2023-02-28T05:19:19;2.23;;;1.20;;
15938;SDS011;8068;51.322;9.450;2023-02-28T05:21:53;1.60;;;1.50;;
15938;SDS011;8068;51.322;9.450;2023-02-28T05:24:20;1.40;;;1.30;;
15938;SDS011;8068;51.322;9.450;2023-02-28T05:26:50;1.60;;;1.33;;
15938;SDS011;8068;51.322;9.450;2023-02-28T05:29:17;2.50;;;2.00;;
15938;SDS011;8068;51.322;9.450;2023-02-28T05:31:44;1.17;;;1.07;;
15938;SDS011;8068;51.322;9.450;2023-02-28T05:34:10;1.67;;;1.57;;
15938;SDS011;8068;51.322;9.450;2023-02-28T05:36:38;1.30;;;1.20;;
15938;SDS011;8068;51.322;9.450;2023-02-28T05:39:05;1.30;;;0.90;;
15938;SDS011;8068;51.322;9.450;2023-02-28T05:41:31;1.10;;;1.00;;
15938;SDS011;8068;51.322;9.450;2023-02-28T05:43:58;1.40;;;1.30;;
15938;SDS011;8068;51.322;9.450;2023-02-28T05:46:25;1.13;;;1.03;;
15938;SDS011;8068;51.322;9.450;2023-02-28T05:48:51;1.40;;;1.30;;
15938;SDS011;8068;51.322;9.450;2023-02-28T05:51:17;1.10;;;1.00;;
15938;SDS011;8068;51.322;9.450;2023-02-28T05:53:43;2.40;;;1.30;;
15938;SDS011;8068;51.322;9.450;2023-02-28T05:56:10;1.50;;;1.40;;
15938;SDS011;8068;51.322;9.450;2023-02-28T05:58:36;1.20;;;1.10;;
15938;SDS011;8068;51.322;9.450;2023-02-28T06:01:19;1.10;;;1.00;;
15938;SDS011;8068;51.322;9.450;2023-02-28T06:03:48;1.50;;;1.40;;
15938;SDS011;8068;51.322;9.450;2023-02-28T06:06:14;2.60;;;1.00;;
15938;SDS011;8068;51.322;9.450;2023-02-28T06:08:40;1.30;;;0.90;;
15938;SDS011;8068;51.322;9.450;2023-02-28T06:11:09;1.90;;;1.40;;
15938;SDS011;8068;51.322;9.450;2023-02-28T06:13:35;1.20;;;1.00;;
15938;SDS011;8068;51.322;9.450;2023-02-28T06:16:02;2.30;;;1.70;;
15938;SDS011;8068;51.322;9.450;2023-02-28T06:18:28;2.73;;;1.10;;
15938;SDS011;8068;51.322;9.450;2023-02-28T06:20:54;1.33;;;1.23;;
15938;SDS011;8068;51.322;9.450;2023-02-28T06:23:21;1.47;;;1.37;;
15938;SDS011;8068;51.322;9.450;2023-02-28T06:25:47;1.63;;;1.53;;
15938;SDS011;8068;51.322;9.450;2023-02-28T06:28:15;1.50;;;1.40;;
15938;SDS011;8068;51.322;9.450;2023-02-28T06:30:41;1.43;;;1.33;;
15938;SDS011;8068;51.322;9.450;2023-02-28T06:33:07;3.97;;;1.60;;
15938;SDS011;8068;51.322;9.450;2023-02-28T06:35:33;5.20;;;1.70;;
15938;SDS011;8068;51.322;9.450;2023-02-28T06:37:59;1.60;;;1.50;;
15938;SDS011;8068;51.322;9.450;2023-02-28T06:40:25;1.43;;;1.30;;
15938;SDS011;8068;51.322;9.450;2023-02-28T06:42:52;1.60;;;1.50;;
15938;SDS011;8068;51.322;9.450;2023-02-28T06:45:18;4.87;;;1.30;;
15938;SDS011;8068;51.322;9.450;2023-02-28T06:47:44;1.33;;;1.23;;
15938;SDS011;8068;51.322;9.450;2023-02-28T06:50:11;1.73;;;1.10;;
15938;SDS011;8068;51.322;9.450;2023-02-28T06:52:38;1.50;;;1.07;;
15938;SDS011;8068;51.322;9.450;2023-02-28T06:55:05;1.30;;;1.20;;
15938;SDS011;8068;51.322;9.450;2023-02-28T06:57:33;1.43;;;1.10;;
15938;SDS011;8068;51.322;9.450;2023-02-28T07:00:01;1.20;;;1.10;;
15938;SDS011;8068;51.322;9.450;2023-02-28T07:02:31;4.73;;;1.33;;
15938;SDS011;8068;51.322;9.450;2023-02-28T07:04:57;2.30;;;1.27;;
15938;SDS011;8068;51.322;9.450;2023-02-28T07:07:24;1.60;;;1.50;;
15938;SDS011;8068;51.322;9.450;2023-02-28T07:09:50;2.63;;;1.20;;
15938;SDS011;8068;51.322;9.450;2023-02-28T07:12:16;7.70;;;1.40;;
15938;SDS011;8068;51.322;9.450;2023-02-28T07:14:42;3.13;;;1.73;;
15938;SDS011;8068;51.322;9.450;2023-02-28T07:17:08;1.60;;;1.50;;
15938;SDS011;8068;51.322;9.450;2023-02-28T07:19:38;2.17;;;1.97;;
15938;SDS011;8068;51.322;9.450;2023-02-28T07:22:05;2.37;;;1.63;;
15938;SDS011;8068;51.322;9.450;2023-02-28T07:24:31;7.03;;;2.00;;
15938;SDS011;8068;51.322;9.450;2023-02-28T07:26:57;4.53;;;2.07;;
15938;SDS011;8068;51.322;9.450;2023-02-28T07:29:25;2.53;;;2.33;;
15938;SDS011;8068;51.322;9.450;2023-02-28T07:31:51;2.33;;;1.90;;
15938;SDS011;8068;51.322;9.450;2023-02-28T07:34:19;2.10;;;2.00;;
15938;SDS011;8068;51.322;9.450;2023-02-28T07:36:45;1.50;;;1.40;;
15938;SDS011;8068;51.322;9.450;2023-02-28T07:39:11;2.57;;;1.23;;
15938;SDS011;8068;51.322;9.450;2023-02-28T07:41:38;3.60;;;1.23;;
15938;SDS011;8068;51.322;9.450;2023-02-28T07:44:09;2.80;;;1.23;;
15938;SDS011;8068;51.322;9.450;2023-02-28T07:46:36;1.93;;;1.83;;
15938;SDS011;8068;51.322;9.450;2023-02-28T07:49:03;1.93;;;1.43;;
15938;SDS011;8068;51.322;9.450;2023-02-28T07:51:30;1.80;;;1.10;;
15938;SDS011;8068;51.322;9.450;2023-02-28T07:53:56;1.57;;;1.23;;
15938;SDS011;8068;51.322;9.450;2023-02-28T07:56:23;1.53;;;1.33;;
15938;SDS011;8068;51.322;9.450;2023-02-28T07:58:49;3.00;;;1.20;;
15938;SDS011;8068;51.322;9.450;2023-02-28T08:01:16;1.30;;;1.20;;
15938;SDS011;8068;51.322;9.450;2023-02-28T08:03:43;1.63;;;1.17;;
15938;SDS011;8068;51.322;9.450;2023-02-28T08:06:15;1.40;;;1.20;;
15938;SDS011;8068;51.322;9.450;2023-02-28T08:08:43;1.87;;;1.77;;
15938;SDS011;8068;51.322;9.450;2023-02-28T08:11:10;3.10;;;1.20;;
15938;SDS011;8068;51.322;9.450;2023-02-28T08:13:36;1.30;;;1.20;;
15938;SDS011;8068;51.322;9.450;2023-02-28T08:16:02;1.60;;;1.50;;
15938;SDS011;8068;51.322;9.450;2023-02-28T08:18:28;1.20;;;1.10;;
15938;SDS011;8068;51.322;9.450;2023-02-28T08:20:55;2.83;;;1.27;;
15938;SDS011;8068;51.322;9.450;2023-02-28T08:23:22;2.03;;;1.67;;
15938;SDS011;8068;51.322;9.450;2023-02-28T08:25:55;2.20;;;1.20;;
15938;SDS011;8068;51.322;9.450;2023-02-28T08:28:22;2.20;;;1.30;;
15938;SDS011;8068;51.322;9.450;2023-02-28T08:30:50;1.30;;;1.17;;
15938;SDS011;8068;51.322;9.450;2023-02-28T08:33:17;1.40;;;1.17;;
15938;SDS011;8068;51.322;9.450;2023-02-28T08:35:43;2.27;;;1.20;;
15938;SDS011;8068;51.322;9.450;2023-02-28T08:38:09;4.27;;;2.00;;
15938;SDS011;8068;51.322;9.450;2023-02-28T08:40:35;2.60;;;1.60;;
15938;SDS011;8068;51.322;9.450;2023-02-28T08:43:01;1.97;;;1.43;;
15938;SDS011;8068;51.322;9.450;2023-02-28T08:45:27;2.00;;;1.90;;
15938;SDS011;8068;51.322;9.450;2023-02-28T08:47:54;1.70;;;1.60;;
15938;SDS011;8068;51.322;9.450;2023-02-28T08:50:21;2.00;;;1.80;;
15938;SDS011;8068;51.322;9.450;2023-02-28T08:52:47;1.50;;;1.40;;
15938;SDS011;8068;51.322;9.450;2023-02-28T08:55:13;1.53;;;1.43;;
15938;SDS011;8068;51.322;9.450;2023-02-28T08:57:40;1.80;;;1.70;;
15938;SDS011;8068;51.322;9.450;2023-02-28T09:00:06;2.57;;;2.03;;
15938;SDS011;8068;51.322;9.450;2023-02-28T09:02:33;1.90;;;1.80;;
15938;SDS011;8068;51.322;9.450;2023-02-28T09:04:59;1.53;;;1.43;;
15938;SDS011;8068;51.322;9.450;2023-02-28T09:07:25;2.50;;;2.00;;
15938;SDS011;8068;51.322;9.450;2023-02-28T09:09:52;3.13;;;2.60;;
15938;SDS011;8068;51.322;9.450;2023-02-28T09:12:21;1.60;;;1.50;;
15938;SDS011;8068;51.322;9.450;2023-02-28T09:14:51;2.00;;;1.90;;
15938;SDS011;8068;51.322;9.450;2023-02-28T09:17:17;2.30;;;2.20;;
15938;SDS011;8068;51.322;9.450;2023-02-28T09:19:44;2.33;;;1.70;;
15938;SDS011;8068;51.322;9.450;2023-02-28T09:22:10;2.13;;;1.90;;
15938;SDS011;8068;51.322;9.450;2023-02-28T09:24:37;4.70;;;1.60;;
15938;SDS011;8068;51.322;9.450;2023-02-28T09:27:03;1.60;;;1.50;;
15938;SDS011;8068;51.322;9.450;2023-02-28T09:29:32;2.00;;;1.90;;
15938;SDS011;8068;51.322;9.450;2023-02-28T09:31:59;2.20;;;2.10;;
15938;SDS011;8068;51.322;9.450;2023-02-28T09:34:26;2.70;;;1.80;;
15938;SDS011;8068;51.322;9.450;2023-02-28T09:36:52;1.60;;;1.50;;
15938;SDS011;8068;51.322;9.450;2023-02-28T09:39:21;1.80;;;1.70;;
15938;SDS011;8068;51.322;9.450;2023-02-28T09:41:48;1.77;;;1.67;;
15938;SDS011;8068;51.322;9.450;2023-02-28T09:47:27;1.90;;;1.60;;
15938;SDS011;8068;51.322;9.450;2023-02-28T09:49:57;3.37;;;1.63;;
15938;SDS011;8068;51.322;9.450;2023-02-28T09:52:27;3.33;;;1.60;;
15938;SDS011;8068;51.322;9.450;2023-02-28T09:54:58;1.50;;;1.27;;
15938;SDS011;8068;51.322;9.450;2023-02-28T10:00:05;1.80;;;1.63;;
15938;SDS011;8068;51.322;9.450;2023-02-28T10:05:14;1.90;;;1.80;;
15938;SDS011;8068;51.322;9.450;2023-02-28T10:13:04;5.23;;;1.50;;
15938;SDS011;8068;51.322;9.450;2023-02-28T10:15:33;2.60;;;1.67;;
15938;SDS011;8068;51.322;9.450;2023-02-28T10:18:01;1.80;;;1.70;;
15938;SDS011;8068;51.322;9.450;2023-02-28T10:20:37;3.97;;;1.90;;
15938;SDS011;8068;51.322;9.450;2023-02-28T10:25:35;1.93;;;1.83;;
15938;SDS011;8068;51.322;9.450;2023-02-28T10:28:13;2.00;;;1.90;;
15938;SDS011;8068;51.322;9.450;2023-02-28T10:30:41;2.70;;;2.10;;
15938;SDS011;8068;51.322;9.450;2023-02-28T10:33:28;2.27;;;2.00;;
15938;SDS011;8068;51.322;9.450;2023-02-28T10:36:01;2.23;;;2.00;;
15938;SDS011;8068;51.322;9.450;2023-02-28T10:38:38;2.20;;;2.10;;
15938;SDS011;8068;51.322;9.450;2023-02-28T10:41:09;2.53;;;2.43;;
15938;SDS011;8068;51.322;9.450;2023-02-28T10:43:37;2.20;;;2.10;;
15938;SDS011;8068;51.322;9.450;2023-02-28T10:48:37;3.37;;;2.00;;
15938;SDS011;8068;51.322;9.450;2023-02-28T10:51:05;2.17;;;2.07;;
15938;SDS011;8068;51.322;9.450;2023-02-28T10:56:26;2.30;;;2.20;;
15938;SDS011;8068;51.322;9.450;2023-02-28T11:01:46;2.40;;;2.30;;
15938;SDS011;8068;51.322;9.450;2023-02-28T11:06:58;1.60;;;1.50;;
15938;SDS011;8068;51.322;9.450;2023-02-28T11:09:33;2.70;;;2.50;;
15938;SDS011;8068;51.322;9.450;2023-02-28T11:12:06;2.63;;;2.53;;
15938;SDS011;8068;51.322;9.450;2023-02-28T11:14:36;3.10;;;2.90;;
15938;SDS011;8068;51.322;9.450;2023-02-28T11:17:27;3.10;;;3.00;;
15938;SDS011;8068;51.322;9.450;2023-02-28T11:20:04;4.33;;;2.30;;
15938;SDS011;8068;51.322;9.450;2023-02-28T11:22:34;2.40;;;2.30;;
15938;SDS011;8068;51.322;9.450;2023-02-28T11:25:12;3.83;;;2.90;;
15938;SDS011;8068;51.322;9.450;2023-02-28T11:27:51;2.60;;;2.50;;
15938;SDS011;8068;51.322;9.450;2023-02-28T11:30:38;2.33;;;2.23;;
15938;SDS011;8068;51.322;9.450;2023-02-28T11:33:30;1.97;;;1.87;;
15938;SDS011;8068;51.322;9.450;2023-02-28T11:36:13;2.40;;;2.30;;
15938;SDS011;8068;51.322;9.450;2023-02-28T11:38:47;2.43;;;2.33;;
15938;SDS011;8068;51.322;9.450;2023-02-28T11:47:14;2.60;;;2.50;;
15938;SDS011;8068;51.322;9.450;2023-02-28T11:52:47;2.90;;;2.70;;
15938;SDS011;8068;51.322;9.450;2023-02-28T12:03:31;3.17;;;2.97;;
15938;SDS011;8068;51.322;9.450;2023-02-28T12:11:35;2.40;;;2.20;;
15938;SDS011;8068;51.322;9.450;2023-02-28T12:14:29;2.80;;;2.60;;
15938;SDS011;8068;51.322;9.450;2023-02-28T12:28:30;2.70;;;2.50;;
15938;SDS011;8068;51.322;9.450;2023-02-28T12:31:23;2.73;;;2.40;;
15938;SDS011;8068;51.322;9.450;2023-02-28T12:33:57;3.03;;;2.67;;
15938;SDS011;8068;51.322;9.450;2023-02-28T12:36:31;2.87;;;2.77;;
15938;SDS011;8068;51.322;9.450;2023-02-28T12:39:11;3.20;;;2.53;;
15938;SDS011;8068;51.322;9.450;2023-02-28T12:41:53;3.00;;;2.80;;
15938;SDS011;8068;51.322;9.450;2023-02-28T12:47:09;2.87;;;2.67;;
15938;SDS011;8068;51.322;9.450;2023-02-28T12:49:48;4.73;;;2.80;;
15938;SDS011;8068;51.322;9.450;2023-02-28T12:52:22;4.70;;;3.10;;
15938;SDS011;8068;51.322;9.450;2023-02-28T12:54:59;2.80;;;2.60;;
15938;SDS011;8068;51.322;9.450;2023-02-28T13:01:07;2.67;;;2.57;;
15938;SDS011;8068;51.322;9.450;2023-02-28T13:09:03;3.13;;;3.03;;
15938;SDS011;8068;51.322;9.450;2023-02-28T13:11:51;3.23;;;2.97;;
15938;SDS011;8068;51.322;9.450;2023-02-28T13:14:29;3.07;;;2.87;;
15938;SDS011;8068;51.322;9.450;2023-02-28T13:19:43;3.60;;;3.30;;
15938;SDS011;8068;51.322;9.450;2023-02-28T13:22:16;2.60;;;2.50;;
15938;SDS011;8068;51.322;9.450;2023-02-28T13:25:00;3.40;;;3.20;;
15938;SDS011;8068;51.322;9.450;2023-02-28T13:27:32;3.27;;;2.97;;
15938;SDS011;8068;51.322;9.450;2023-02-28T13:44:08;4.80;;;3.13;;
15938;SDS011;8068;51.322;9.450;2023-02-28T13:51:50;6.03;;;3.40;;
15938;SDS011;8068;51.322;9.450;2023-02-28T14:05:29;2.70;;;2.60;;
15938;SDS011;8068;51.322;9.450;2023-02-28T14:08:05;3.77;;;3.60;;
15938;SDS011;8068;51.322;9.450;2023-02-28T14:10:51;3.27;;;3.17;;
15938;SDS011;8068;51.322;9.450;2023-02-28T14:13:41;2.83;;;2.73;;
15938;SDS011;8068;51.322;9.450;2023-02-28T14:16:23;3.97;;;3.73;;
15938;SDS011;8068;51.322;9.450;2023-02-28T14:19:22;3.50;;;3.30;;
15938;SDS011;8068;51.322;9.450;2023-02-28T14:22:15;3.20;;;3.00;;
15938;SDS011;8068;51.322;9.450;2023-02-28T14:38:46;3.80;;;3.60;;
15938;SDS011;8068;51.322;9.450;2023-02-28T14:41:30;3.33;;;2.97;;
15938;SDS011;8068;51.322;9.450;2023-02-28T14:44:22;4.73;;;3.70;;
15938;SDS011;8068;51.322;9.450;2023-02-28T14:46:55;3.33;;;3.23;;
15938;SDS011;8068;51.322;9.450;2023-02-28T14:52:19;3.17;;;3.00;;
15938;SDS011;8068;51.322;9.450;2023-02-28T14:54:53;3.47;;;3.27;;
15938;SDS011;8068;51.322;9.450;2023-02-28T14:57:31;3.90;;;3.70;;
15938;SDS011;8068;51.322;9.450;2023-02-28T15:02:55;4.60;;;4.40;;
15938;SDS011;8068;51.322;9.450;2023-02-28T15:05:33;3.70;;;3.40;;
15938;SDS011;8068;51.322;9.450;2023-02-28T15:08:13;3.80;;;3.60;;
15938;SDS011;8068;51.322;9.450;2023-02-28T15:10:50;3.27;;;3.07;;
15938;SDS011;8068;51.322;9.450;2023-02-28T15:16:17;5.57;;;3.97;;
15938;SDS011;8068;51.322;9.450;2023-02-28T15:19:04;3.73;;;3.40;;
15938;SDS011;8068;51.322;9.450;2023-02-28T15:21:38;4.60;;;3.13;;
15938;SDS011;8068;51.322;9.450;2023-02-28T15:24:17;4.50;;;4.30;;
15938;SDS011;8068;51.322;9.450;2023-02-28T15:27:00;4.40;;;4.00;;
15938;SDS011;8068;51.322;9.450;2023-02-28T15:29:37;4.37;;;4.07;;
15938;SDS011;8068;51.322;9.450;2023-02-28T15:32:21;3.73;;;3.53;;
15938;SDS011;8068;51.322;9.450;2023-02-28T15:35:17;4.30;;;3.90;;
15938;SDS011;8068;51.322;9.450;2023-02-28T15:40:27;4.53;;;4.30;;
15938;SDS011;8068;51.322;9.450;2023-02-28T15:46:08;4.43;;;4.10;;
15938;SDS011;8068;51.322;9.450;2023-02-28T15:48:51;4.17;;;3.87;;
15938;SDS011;8068;51.322;9.450;2023-02-28T15:51:24;4.30;;;4.10;;
15938;SDS011;8068;51.322;9.450;2023-02-28T15:54:01;4.87;;;4.00;;
15938;SDS011;8068;51.322;9.450;2023-02-28T15:56:43;4.90;;;4.70;;
15938;SDS011;8068;51.322;9.450;2023-02-28T15:59:19;4.27;;;4.07;;
15938;SDS011;8068;51.322;9.450;2023-02-28T16:02:04;5.07;;;4.57;;
15938;SDS011;8068;51.322;9.450;2023-02-28T16:07:25;4.57;;;4.23;;
15938;SDS011;8068;51.322;9.450;2023-02-28T16:09:57;4.47;;;4.17;;
15938;SDS011;8068;51.322;9.450;2023-02-28T16:12:32;4.70;;;4.30;;
15938;SDS011;8068;51.322;9.450;2023-02-28T16:17:56;5.40;;;5.00;;
15938;SDS011;8068;51.322;9.450;2023-02-28T16:20:29;5.27;;;4.97;;
15938;SDS011;8068;51.322;9.450;2023-02-28T16:23:05;4.40;;;4.10;;
15938;SDS011;8068;51.322;9.450;2023-02-28T16:25:38;4.57;;;4.30;;
15938;SDS011;8068;51.322;9.450;2023-02-28T16:28:12;8.83;;;4.70;;
15938;SDS011;8068;51.322;9.450;2023-02-28T16:30:48;4.70;;;4.50;;
15938;SDS011;8068;51.322;9.450;2023-02-28T16:33:21;4.43;;;4.23;;
15938;SDS011;8068;51.322;9.450;2023-02-28T16:35:51;8.50;;;5.80;;
15938;SDS011;8068;51.322;9.450;2023-02-28T16:38:26;6.10;;;5.60;;
15938;SDS011;8068;51.322;9.450;2023-02-28T16:40:58;7.07;;;6.57;;
15938;SDS011;8068;51.322;9.450;2023-02-28T16:43:29;4.97;;;4.67;;
15938;SDS011;8068;51.322;9.450;2023-02-28T16:45:59;4.87;;;4.67;;
15938;SDS011;8068;51.322;9.450;2023-02-28T16:48:31;4.77;;;4.57;;
15938;SDS011;8068;51.322;9.450;2023-02-28T16:51:02;5.70;;;5.20;;
15938;SDS011;8068;51.322;9.450;2023-02-28T16:53:34;10.73;;;4.87;;
15938;SDS011;8068;51.322;9.450;2023-02-28T16:56:05;5.80;;;5.40;;
15938;SDS011;8068;51.322;9.450;2023-02-28T16:58:37;4.77;;;4.57;;
15938;SDS011;8068;51.322;9.450;2023-02-28T17:01:07;7.57;;;5.37;;
15938;SDS011;8068;51.322;9.450;2023-02-28T17:03:43;6.50;;;6.10;;
15938;SDS011;8068;51.322;9.450;2023-02-28T17:06:24;5.70;;;5.20;;
15938;SDS011;8068;51.322;9.450;2023-02-28T17:08:59;9.27;;;6.10;;
15938;SDS011;8068;51.322;9.450;2023-02-28T17:11:30;7.50;;;6.80;;
15938;SDS011;8068;51.322;9.450;2023-02-28T17:14:01;6.43;;;5.83;;
15938;SDS011;8068;51.322;9.450;2023-02-28T17:16:32;7.17;;;5.47;;
15938;SDS011;8068;51.322;9.450;2023-02-28T17:19:10;5.70;;;5.23;;
15938;SDS011;8068;51.322;9.450;2023-02-28T17:21:42;5.50;;;5.00;;
15938;SDS011;8068;51.322;9.450;2023-02-28T17:24:13;5.40;;;4.90;;
15938;SDS011;8068;51.322;9.450;2023-02-28T17:26:52;5.90;;;5.50;;
15938;SDS011;8068;51.322;9.450;2023-02-28T17:29:22;5.90;;;5.40;;
15938;SDS011;8068;51.322;9.450;2023-02-28T17:31:54;5.43;;;5.00;;
15938;SDS011;8068;51.322;9.450;2023-02-28T17:34:30;5.17;;;4.87;;
15938;SDS011;8068;51.322;9.450;2023-02-28T17:37:01;6.30;;;5.60;;
15938;SDS011;8068;51.322;9.450;2023-02-28T17:39:33;5.63;;;5.23;;
15938;SDS011;8068;51.322;9.450;2023-02-28T17:42:08;6.13;;;5.63;;
15938;SDS011;8068;51.322;9.450;2023-02-28T17:44:39;7.07;;;6.57;;
15938;SDS011;8068;51.322;9.450;2023-02-28T17:47:11;6.00;;;5.43;;
15938;SDS011;8068;51.322;9.450;2023-02-28T17:49:43;5.50;;;5.20;;
15938;SDS011;8068;51.322;9.450;2023-02-28T17:52:14;6.20;;;5.47;;
15938;SDS011;8068;51.322;9.450;2023-02-28T17:54:44;6.80;;;6.13;;
15938;SDS011;8068;51.322;9.450;2023-02-28T17:57:15;6.70;;;6.20;;
15938;SDS011;8068;51.322;9.450;2023-02-28T17:59:47;7.03;;;5.67;;
15938;SDS011;8068;51.322;9.450;2023-02-28T18:02:18;5.97;;;5.47;;
15938;SDS011;8068;51.322;9.450;2023-02-28T18:04:48;5.80;;;5.20;;
15938;SDS011;8068;51.322;9.450;2023-02-28T18:07:24;5.80;;;5.27;;
15938;SDS011;8068;51.322;9.450;2023-02-28T18:09:56;7.87;;;5.67;;
15938;SDS011;8068;51.322;9.450;2023-02-28T18:12:27;6.77;;;6.10;;
15938;SDS011;8068;51.322;9.450;2023-02-28T18:14:57;6.13;;;5.63;;
15938;SDS011;8068;51.322;9.450;2023-02-28T18:17:28;6.30;;;5.80;;
15938;SDS011;8068;51.322;9.450;2023-02-28T18:19:59;7.43;;;6.40;;